createdAt,value
2018-04-18T00:00:56.453Z,14.40
2018-04-18T00:03:25.318Z,19.40
2018-04-18T00:05:53.984Z,14.97
2018-04-18T00:08:21.989Z,14.70
2018-04-18T00:10:50.008Z,20.07
2018-04-18T00:13:17.991Z,15.23
2018-04-18T00:15:45.996Z,26.13
2018-04-18T00:18:13.963Z,16.53
2018-04-18T00:20:42.008Z,21.73
2018-04-18T00:23:09.911Z,14.43
2018-04-18T00:25:37.878Z,19.03
2018-04-18T00:28:05.903Z,20.40
2018-04-18T00:30:33.897Z,12.50
2018-04-18T00:33:01.888Z,21.30
2018-04-18T00:35:29.926Z,13.40
2018-04-18T00:37:57.876Z,16.40
2018-04-18T00:40:25.821Z,15.73
2018-04-18T00:42:53.796Z,19.20
2018-04-18T00:45:21.869Z,23.93
2018-04-18T00:47:49.817Z,19.03
2018-04-18T00:50:17.809Z,13.87
2018-04-18T00:52:45.785Z,14.63
2018-04-18T00:55:13.759Z,15.97
2018-04-18T00:57:41.719Z,17.90
2018-04-18T01:00:09.889Z,18.30
2018-04-18T01:02:38.476Z,19.33
2018-04-18T01:05:06.498Z,14.03
2018-04-18T01:07:34.563Z,21.40
2018-04-18T01:10:02.606Z,19.23
2018-04-18T01:12:30.556Z,26.40
2018-04-18T01:14:58.657Z,15.47
2018-04-18T01:17:26.750Z,22.43
2018-04-18T01:19:54.986Z,16.10
2018-04-18T01:22:23.607Z,19.07
2018-04-18T01:24:51.630Z,18.63
2018-04-18T01:27:19.655Z,19.63
2018-04-18T01:29:47.931Z,20.13
2018-04-18T01:32:16.003Z,24.17
2018-04-18T01:34:44.663Z,20.30
2018-04-18T01:37:12.862Z,20.33
2018-04-18T01:39:40.876Z,24.63
2018-04-18T01:42:09.048Z,21.27
2018-04-18T01:44:37.012Z,23.70
2018-04-18T01:47:05.452Z,23.83
2018-04-18T01:49:33.971Z,22.90
2018-04-18T01:52:02.594Z,18.07
2018-04-18T01:54:30.566Z,22.33
2018-04-18T01:56:58.563Z,22.43
2018-04-18T01:59:26.657Z,20.70
2018-04-18T02:01:54.701Z,28.20
2018-04-18T02:04:22.769Z,20.67
2018-04-18T02:06:50.827Z,30.53
2018-04-18T02:09:18.831Z,23.13
2018-04-18T02:11:46.847Z,27.33
2018-04-18T02:14:14.808Z,20.87
2018-04-18T02:16:42.899Z,23.73
2018-04-18T02:19:10.933Z,23.97
2018-04-18T02:21:38.985Z,22.00
2018-04-18T02:24:07.011Z,21.70
2018-04-18T02:26:34.981Z,22.73
2018-04-18T02:29:02.970Z,26.73
2018-04-18T02:31:30.981Z,21.50
2018-04-18T02:33:59.926Z,20.20
2018-04-18T02:36:28.913Z,17.80
2018-04-18T02:38:56.995Z,21.53
2018-04-18T02:41:25.138Z,23.80
2018-04-18T02:43:53.128Z,23.23
2018-04-18T02:46:21.302Z,21.17
2018-04-18T02:48:49.343Z,16.30
2018-04-18T02:51:18.159Z,26.90
2018-04-18T02:53:46.266Z,19.50
2018-04-18T02:56:14.417Z,21.37
2018-04-18T02:58:43.434Z,24.30
2018-04-18T03:01:11.447Z,20.90
2018-04-18T03:03:39.547Z,17.73
2018-04-18T03:06:07.657Z,23.23
2018-04-18T03:08:35.876Z,20.27
2018-04-18T03:11:03.867Z,20.20
2018-04-18T03:13:31.923Z,20.23
2018-04-18T03:15:59.909Z,20.10
2018-04-18T03:18:27.918Z,17.50
2018-04-18T03:20:56.195Z,18.93
2018-04-18T03:23:24.191Z,17.07
2018-04-18T03:25:52.190Z,21.67
2018-04-18T03:28:20.227Z,20.63
2018-04-18T03:30:48.207Z,20.00
2018-04-18T03:33:16.380Z,18.60
2018-04-18T03:35:44.470Z,19.20
2018-04-18T03:38:12.576Z,24.80
2018-04-18T03:40:41.321Z,18.00
2018-04-18T03:43:09.254Z,17.07
2018-04-18T03:45:37.203Z,18.17
2018-04-18T03:48:05.262Z,19.50
2018-04-18T03:50:33.222Z,27.97
2018-04-18T03:53:01.851Z,21.37
2018-04-18T03:55:30.552Z,18.30
2018-04-18T03:57:59.725Z,19.43
2018-04-18T04:00:27.820Z,20.60
2018-04-18T04:02:55.824Z,21.30
2018-04-18T04:05:24.526Z,22.90
2018-04-18T04:07:54.427Z,18.10
2018-04-18T04:10:22.672Z,21.00
2018-04-18T04:12:51.453Z,20.60
2018-04-18T04:15:19.483Z,19.57
2018-04-18T04:17:59.985Z,26.87
2018-04-18T04:20:39.981Z,22.30
2018-04-18T04:23:19.874Z,20.70
2018-04-18T04:25:48.304Z,23.10
2018-04-18T04:28:16.296Z,24.30
2018-04-18T04:30:44.447Z,19.33
2018-04-18T04:33:13.151Z,25.70
2018-04-18T04:35:41.367Z,20.50
2018-04-18T04:38:10.345Z,21.13
2018-04-18T04:40:38.747Z,21.43
2018-04-18T04:43:08.182Z,21.90
2018-04-18T04:45:38.903Z,21.63
2018-04-18T04:48:07.081Z,24.87
2018-04-18T04:50:36.034Z,21.70
2018-04-18T04:53:04.061Z,25.40
2018-04-18T04:55:32.792Z,21.20
2018-04-18T04:58:00.816Z,23.23
2018-04-18T05:00:29.289Z,21.83
2018-04-18T05:02:57.529Z,22.80
2018-04-18T05:05:25.713Z,16.67
2018-04-18T05:07:53.961Z,21.27
2018-04-18T05:10:22.343Z,18.17
2018-04-18T05:12:50.274Z,24.63
2018-04-18T05:15:18.385Z,32.43
2018-04-18T05:17:46.935Z,15.80
2018-04-18T05:20:15.067Z,17.47
2018-04-18T05:22:43.044Z,21.93
2018-04-18T05:25:11.042Z,19.60
2018-04-18T05:27:39.024Z,20.40
2018-04-18T05:30:06.953Z,17.70
2018-04-18T05:32:34.943Z,16.47
2018-04-18T05:35:02.914Z,17.40
2018-04-18T05:37:30.996Z,19.63
2018-04-18T05:39:58.991Z,29.10
2018-04-18T05:42:27.884Z,21.27
2018-04-18T05:44:55.915Z,16.83
2018-04-18T05:47:24.072Z,23.17
2018-04-18T05:49:52.079Z,18.80
2018-04-18T05:52:20.141Z,23.77
2018-04-18T05:54:48.557Z,24.37
2018-04-18T05:57:16.557Z,19.37
2018-04-18T05:59:44.614Z,19.73
2018-04-18T06:02:12.598Z,20.67
2018-04-18T06:04:40.651Z,20.00
2018-04-18T06:07:08.609Z,23.30
2018-04-18T06:09:36.947Z,19.00
2018-04-18T06:12:05.517Z,30.43
2018-04-18T06:14:33.556Z,19.63
2018-04-18T06:17:01.621Z,22.03
2018-04-18T06:19:29.708Z,17.60
2018-04-18T06:21:57.795Z,20.37
2018-04-18T06:24:26.401Z,22.60
2018-04-18T06:26:54.370Z,19.10
2018-04-18T06:29:22.675Z,22.63
2018-04-18T06:31:50.780Z,19.10
2018-04-18T06:34:19.198Z,19.70
2018-04-18T06:36:47.186Z,19.27
2018-04-18T06:39:16.650Z,17.80
2018-04-18T06:41:45.956Z,17.23
2018-04-18T06:44:14.416Z,24.10
2018-04-18T06:46:42.509Z,22.20
2018-04-18T06:49:10.639Z,21.10
2018-04-18T06:51:38.680Z,18.00
2018-04-18T06:54:06.931Z,21.77
2018-04-18T06:56:35.549Z,18.70
2018-04-18T06:59:03.545Z,17.70
2018-04-18T07:01:31.517Z,17.93
2018-04-18T07:03:59.780Z,20.47
2018-04-18T07:06:27.857Z,17.83
2018-04-18T07:08:56.027Z,17.30
2018-04-18T07:11:24.826Z,20.67
2018-04-18T07:13:52.850Z,22.30
2018-04-18T07:16:20.804Z,19.07
2018-04-18T07:18:49.740Z,17.53
2018-04-18T07:21:17.789Z,18.67
2018-04-18T07:23:45.771Z,27.60
2018-04-18T07:26:13.888Z,19.10
2018-04-18T07:28:41.847Z,23.00
2018-04-18T07:31:09.846Z,18.93
2018-04-18T07:33:37.785Z,18.50
2018-04-18T07:36:05.831Z,20.73
2018-04-18T07:38:33.812Z,21.27
2018-04-18T07:41:01.777Z,20.47
2018-04-18T07:43:29.750Z,21.87
2018-04-18T07:45:57.716Z,19.93
2018-04-18T07:48:26.689Z,20.03
2018-04-18T07:50:54.599Z,20.30
2018-04-18T07:53:22.657Z,19.80
2018-04-18T07:55:50.631Z,25.60
2018-04-18T07:58:18.634Z,20.27
2018-04-18T08:00:46.901Z,21.10
2018-04-18T08:03:14.905Z,52.23
2018-04-18T08:05:42.875Z,32.80
2018-04-18T08:08:10.856Z,28.80
2018-04-18T08:10:39.582Z,46.00
2018-04-18T08:13:07.789Z,46.50
2018-04-18T08:15:35.756Z,33.73
2018-04-18T08:18:03.703Z,29.23
2018-04-18T08:20:31.710Z,30.33
2018-04-18T08:23:00.067Z,20.00
2018-04-18T08:25:29.663Z,26.80
2018-04-18T08:27:57.693Z,28.47
2018-04-18T08:30:26.535Z,25.03
2018-04-18T08:32:56.873Z,25.17
2018-04-18T08:35:24.837Z,31.03
2018-04-18T08:37:52.922Z,24.50
2018-04-18T08:40:20.879Z,27.40
2018-04-18T08:42:48.972Z,25.70
2018-04-18T08:45:17.043Z,25.60
2018-04-18T08:47:45.712Z,31.23
2018-04-18T08:50:13.700Z,26.23
2018-04-18T08:52:42.280Z,25.33
2018-04-18T08:55:10.217Z,30.57
2018-04-18T08:57:38.208Z,27.93
2018-04-18T09:00:06.256Z,26.73
2018-04-18T09:02:34.243Z,25.30
2018-04-18T09:05:02.234Z,25.00
2018-04-18T09:07:30.247Z,33.60
2018-04-18T09:09:58.321Z,29.77
2018-04-18T09:12:26.445Z,26.50
2018-04-18T09:14:54.504Z,30.60
2018-04-18T09:17:22.488Z,27.63
2018-04-18T09:19:50.539Z,30.13
2018-04-18T09:22:18.560Z,32.43
2018-04-18T09:24:46.555Z,32.97
2018-04-18T09:27:14.524Z,29.30
2018-04-18T09:29:42.541Z,29.70
2018-04-18T09:32:10.545Z,30.30
2018-04-18T09:34:38.497Z,31.60
2018-04-18T09:37:06.614Z,27.67
2018-04-18T09:39:35.441Z,35.00
2018-04-18T09:42:04.023Z,31.00
2018-04-18T09:44:32.090Z,32.30
2018-04-18T09:47:00.066Z,27.37
2018-04-18T09:49:28.137Z,32.00
2018-04-18T09:51:56.312Z,28.07
2018-04-18T09:54:24.359Z,27.23
2018-04-18T09:56:52.357Z,27.60
2018-04-18T09:59:22.525Z,29.20
2018-04-18T10:01:50.463Z,24.50
2018-04-18T10:04:24.239Z,25.43
2018-04-18T10:06:52.221Z,25.30
2018-04-18T10:09:20.252Z,26.43
2018-04-18T10:11:48.235Z,24.80
2018-04-18T10:14:16.267Z,21.07
2018-04-18T10:16:44.368Z,23.03
2018-04-18T10:19:12.272Z,20.27
2018-04-18T10:21:40.214Z,23.93
2018-04-18T10:24:08.170Z,24.33
2018-04-18T10:26:36.181Z,20.17
2018-04-18T10:29:04.214Z,26.40
2018-04-18T10:31:32.328Z,25.50
2018-04-18T10:34:02.470Z,22.93
2018-04-18T10:36:30.488Z,17.20
2018-04-18T10:38:58.659Z,20.03
2018-04-18T10:41:27.319Z,14.07
2018-04-18T10:43:55.393Z,19.10
2018-04-18T10:46:23.560Z,17.93
2018-04-18T10:48:51.518Z,23.10
2018-04-18T10:51:20.774Z,19.57
2018-04-18T10:53:49.720Z,19.40
2018-04-18T10:56:17.742Z,15.13
2018-04-18T10:58:46.498Z,15.80
2018-04-18T11:01:15.165Z,14.57
2018-04-18T11:03:43.295Z,15.70
2018-04-18T11:06:11.395Z,17.60
2018-04-18T11:08:40.667Z,13.20
2018-04-18T11:11:08.727Z,10.63
2018-04-18T11:13:36.722Z,11.83
2018-04-18T11:16:07.309Z,13.13
2018-04-18T11:18:35.622Z,13.13
2018-04-18T11:21:04.197Z,10.63
2018-04-18T11:23:33.205Z,10.50
2018-04-18T11:26:01.349Z,8.87
2018-04-18T11:28:29.258Z,11.03
2018-04-18T11:30:57.280Z,10.70
2018-04-18T11:33:26.000Z,8.23
2018-04-18T11:35:54.598Z,7.40
2018-04-18T11:38:22.630Z,7.37
2018-04-18T11:40:51.010Z,8.03
2018-04-18T11:43:18.924Z,9.97
2018-04-18T11:45:46.890Z,8.33
2018-04-18T11:48:14.878Z,9.80
2018-04-18T11:50:42.828Z,9.50
2018-04-18T11:53:10.800Z,11.00
2018-04-18T11:55:38.842Z,13.57
2018-04-18T11:58:06.794Z,17.23
2018-04-18T12:00:34.890Z,10.50
2018-04-18T12:03:02.963Z,8.73
2018-04-18T12:05:30.933Z,11.60
2018-04-18T12:07:59.516Z,9.13
2018-04-18T12:10:27.573Z,8.20
2018-04-18T12:12:55.557Z,6.57
2018-04-18T12:15:23.512Z,5.87
2018-04-18T12:17:52.284Z,10.53
2018-04-18T12:20:20.242Z,8.20
2018-04-18T12:22:48.233Z,6.90
2018-04-18T12:25:16.203Z,8.97
2018-04-18T12:27:45.119Z,9.60
2018-04-18T12:30:13.111Z,5.70
2018-04-18T12:32:41.796Z,7.63
2018-04-18T12:35:09.739Z,5.67
2018-04-18T12:37:37.713Z,9.27
2018-04-18T12:40:05.705Z,5.23
2018-04-18T12:42:33.678Z,7.90
2018-04-18T12:45:01.718Z,6.53
2018-04-18T12:47:30.498Z,6.83
2018-04-18T12:49:58.477Z,5.40
2018-04-18T12:52:26.527Z,5.20
2018-04-18T12:54:54.552Z,9.60
2018-04-18T12:57:22.543Z,5.80
2018-04-18T12:59:50.561Z,7.83
2018-04-18T13:02:18.568Z,7.83
2018-04-18T13:04:46.652Z,5.23
2018-04-18T13:07:14.581Z,4.60
2018-04-18T13:09:42.499Z,3.00
2018-04-18T13:12:10.509Z,2.90
2018-04-18T13:14:38.748Z,2.10
2018-04-18T13:17:06.699Z,2.80
2018-04-18T13:19:34.762Z,4.17
2018-04-18T13:22:02.783Z,2.83
2018-04-18T13:24:30.846Z,6.27
2018-04-18T13:27:00.182Z,2.80
2018-04-18T13:29:28.191Z,7.10
2018-04-18T13:31:56.281Z,3.63
2018-04-18T13:34:24.259Z,4.97
2018-04-18T13:36:52.352Z,6.60
2018-04-18T13:39:20.400Z,8.43
2018-04-18T13:41:48.315Z,8.30
2018-04-18T13:44:16.362Z,6.67
2018-04-18T13:46:44.435Z,6.17
2018-04-18T13:49:12.433Z,5.23
2018-04-18T13:51:40.532Z,7.13
2018-04-18T13:54:08.466Z,8.80
2018-04-18T13:56:36.420Z,8.73
2018-04-18T13:59:04.554Z,5.43
2018-04-18T14:01:32.584Z,4.50
2018-04-18T14:04:00.656Z,6.57
2018-04-18T14:06:29.242Z,6.87
2018-04-18T14:08:57.598Z,8.70
2018-04-18T14:11:26.470Z,6.30
2018-04-18T14:13:54.528Z,6.13
2018-04-18T14:16:22.658Z,6.80
2018-04-18T14:18:51.521Z,8.13
2018-04-18T14:21:19.569Z,7.57
2018-04-18T14:23:47.894Z,6.80
2018-04-18T14:26:16.102Z,8.07
2018-04-18T14:28:44.075Z,8.90
2018-04-18T14:31:12.151Z,5.57
2018-04-18T14:33:40.363Z,6.13
2018-04-18T14:36:08.350Z,11.23
2018-04-18T14:38:36.371Z,7.70
2018-04-18T14:41:04.299Z,10.70
2018-04-18T14:43:32.726Z,10.07
2018-04-18T14:46:00.748Z,10.53
2018-04-18T14:48:28.717Z,12.40
2018-04-18T14:50:56.742Z,11.73
2018-04-18T14:53:24.768Z,11.83
2018-04-18T14:55:52.703Z,9.00
2018-04-18T14:58:20.704Z,6.97
2018-04-18T15:00:49.117Z,10.80
2018-04-18T15:03:17.111Z,7.67
2018-04-18T15:05:45.119Z,11.17
2018-04-18T15:08:13.103Z,10.80
2018-04-18T15:10:41.102Z,11.07
2018-04-18T15:13:09.094Z,12.30
2018-04-18T15:15:37.049Z,15.90
2018-04-18T15:18:05.020Z,16.13
2018-04-18T15:20:33.638Z,13.50
2018-04-18T15:23:01.704Z,8.47
2018-04-18T15:25:29.653Z,13.63
2018-04-18T15:27:57.762Z,8.97
2018-04-18T15:30:25.658Z,13.10
2018-04-18T15:32:53.767Z,11.73
2018-04-18T15:35:21.694Z,13.73
2018-04-18T15:37:49.817Z,13.20
2018-04-18T15:40:18.318Z,13.03
2018-04-18T15:42:46.878Z,12.30
2018-04-18T15:45:15.512Z,12.47
2018-04-18T15:47:43.559Z,11.83
2018-04-18T15:50:11.713Z,14.03
2018-04-18T15:52:39.812Z,12.37
2018-04-18T15:55:07.830Z,19.47
2018-04-18T15:57:36.615Z,12.50
2018-04-18T16:00:04.600Z,6.93
2018-04-18T16:02:32.664Z,11.43
2018-04-18T16:05:00.685Z,10.10
2018-04-18T16:07:28.865Z,10.83
2018-04-18T16:09:56.882Z,14.70
2018-04-18T16:12:24.822Z,11.50
2018-04-18T16:14:52.835Z,7.50
2018-04-18T16:17:20.810Z,9.83
2018-04-18T16:19:48.801Z,8.77
2018-04-18T16:22:17.385Z,5.83
2018-04-18T16:24:45.382Z,8.00
2018-04-18T16:27:13.482Z,7.30
2018-04-18T16:29:43.438Z,9.13
2018-04-18T16:32:11.450Z,7.03
2018-04-18T16:34:39.479Z,9.07
2018-04-18T16:37:07.378Z,8.87
2018-04-18T16:39:35.303Z,11.90
2018-04-18T16:42:03.332Z,9.73
2018-04-18T16:44:32.537Z,10.90
2018-04-18T16:47:01.422Z,9.33
2018-04-18T16:49:29.333Z,9.60
2018-04-18T16:51:57.303Z,12.50
2018-04-18T16:54:25.381Z,16.27
2018-04-18T16:56:53.432Z,10.07
2018-04-18T16:59:21.445Z,10.97
2018-04-18T17:01:49.475Z,14.80
2018-04-18T17:04:17.494Z,13.83
2018-04-18T17:06:45.502Z,16.80
2018-04-18T17:09:13.796Z,16.77
2018-04-18T17:11:41.762Z,18.23
2018-04-18T17:14:09.771Z,15.20
2018-04-18T17:16:37.956Z,19.07
2018-04-18T17:19:06.056Z,20.47
2018-04-18T17:21:34.224Z,18.13
2018-04-18T17:24:02.165Z,16.93
2018-04-18T17:26:30.947Z,17.47
2018-04-18T17:28:58.888Z,17.30
2018-04-18T17:31:26.806Z,15.57
2018-04-18T17:33:54.769Z,19.50
2018-04-18T17:36:22.699Z,16.50
2018-04-18T17:38:50.716Z,20.57
2018-04-18T17:41:18.908Z,19.90
2018-04-18T17:43:46.948Z,19.90
2018-04-18T17:46:14.899Z,15.37
2018-04-18T17:48:42.910Z,18.53
2018-04-18T17:51:10.887Z,14.23
2018-04-18T17:53:38.845Z,18.00
2018-04-18T17:56:06.775Z,15.83
2018-04-18T17:58:34.788Z,18.60
2018-04-18T18:01:02.801Z,16.30
2018-04-18T18:03:30.779Z,22.40
2018-04-18T18:05:58.783Z,37.47
2018-04-18T18:08:27.313Z,19.97
2018-04-18T18:10:55.748Z,16.77
2018-04-18T18:13:23.721Z,53.00
2018-04-18T18:15:51.713Z,47.80
2018-04-18T18:18:19.815Z,75.83
2018-04-18T18:20:47.782Z,78.00
2018-04-18T18:23:15.819Z,61.73
2018-04-18T18:25:43.880Z,60.67
2018-04-18T18:28:11.848Z,61.33
2018-04-18T18:30:41.709Z,60.03
2018-04-18T18:33:09.659Z,65.63
2018-04-18T18:35:37.734Z,45.13
2018-04-18T18:38:05.760Z,42.47
2018-04-18T18:40:33.639Z,33.80
2018-04-18T18:43:01.554Z,27.40
2018-04-18T18:45:29.485Z,30.97
2018-04-18T18:47:57.483Z,31.10
2018-04-18T18:50:25.412Z,28.67
2018-04-18T18:52:54.539Z,26.70
2018-04-18T18:55:22.975Z,20.87
2018-04-18T18:57:51.198Z,25.10
2018-04-18T19:00:19.165Z,20.10
2018-04-18T19:02:47.439Z,22.60
2018-04-18T19:05:16.211Z,20.03
2018-04-18T19:07:44.144Z,20.30
2018-04-18T19:10:12.178Z,19.33
2018-04-18T19:12:40.101Z,20.13
2018-04-18T19:15:08.021Z,19.77
2018-04-18T19:17:35.969Z,18.93
2018-04-18T19:20:03.898Z,18.03
2018-04-18T19:22:31.955Z,21.67
2018-04-18T19:24:59.893Z,21.60
2018-04-18T19:27:28.007Z,17.37
2018-04-18T19:29:55.973Z,16.90
2018-04-18T19:32:24.823Z,18.20
2018-04-18T19:34:52.789Z,14.70
2018-04-18T19:37:20.754Z,19.33
2018-04-18T19:39:48.689Z,15.43
2018-04-18T19:42:16.616Z,15.87
2018-04-18T19:44:44.706Z,19.43
2018-04-18T19:47:12.672Z,15.47
2018-04-18T19:49:40.624Z,20.83
2018-04-18T19:52:08.720Z,18.90
2018-04-18T19:54:37.332Z,51.30
2018-04-18T19:57:05.275Z,49.60
2018-04-18T19:59:33.267Z,23.83
2018-04-18T20:02:01.324Z,21.77
2018-04-18T20:04:29.390Z,22.70
2018-04-18T20:06:57.541Z,25.67
2018-04-18T20:09:25.534Z,20.47
2018-04-18T20:11:53.861Z,22.37
2018-04-18T20:14:21.862Z,20.40
2018-04-18T20:16:49.861Z,20.33
2018-04-18T20:19:17.790Z,31.47
2018-04-18T20:21:45.909Z,20.83
2018-04-18T20:24:13.979Z,21.50
2018-04-18T20:26:41.902Z,19.93
2018-04-18T20:29:09.991Z,19.23
2018-04-18T20:31:37.962Z,21.63
2018-04-18T20:34:05.908Z,19.83
2018-04-18T20:36:38.389Z,21.50
2018-04-18T20:39:06.345Z,19.40
2018-04-18T20:41:35.046Z,20.33
2018-04-18T20:44:02.971Z,26.17
2018-04-18T20:46:31.088Z,25.53
2018-04-18T20:48:59.093Z,22.43
2018-04-18T20:51:27.433Z,21.00
2018-04-18T20:53:55.461Z,29.27
2018-04-18T20:56:23.450Z,23.33
2018-04-18T20:58:52.020Z,19.10
2018-04-18T21:01:20.462Z,19.17
2018-04-18T21:03:48.699Z,28.70
2018-04-18T21:06:16.673Z,30.33
2018-04-18T21:08:44.779Z,25.43
2018-04-18T21:11:12.737Z,109.93
2018-04-18T21:13:41.040Z,110.90
2018-04-18T21:16:09.893Z,76.23
2018-04-18T21:18:38.536Z,25.87
2018-04-18T21:21:06.832Z,20.37
2018-04-18T21:23:34.849Z,25.93
2018-04-18T21:26:02.826Z,19.83
2018-04-18T21:28:30.787Z,20.10
2018-04-18T21:31:00.116Z,21.30
2018-04-18T21:33:28.132Z,20.73
2018-04-18T21:35:57.437Z,23.73
2018-04-18T21:38:25.529Z,28.10
2018-04-18T21:40:53.601Z,25.87
2018-04-18T21:43:21.811Z,25.10
2018-04-18T21:45:49.845Z,24.03
2018-04-18T21:48:18.020Z,22.90
2018-04-18T21:50:46.191Z,21.33
2018-04-18T21:53:14.265Z,18.73
2018-04-18T21:55:42.580Z,20.43
2018-04-18T21:58:10.732Z,20.17
2018-04-18T22:00:39.420Z,18.40
2018-04-18T22:03:07.464Z,22.33
2018-04-18T22:05:35.567Z,19.90
2018-04-18T22:08:04.620Z,22.57
2018-04-18T22:10:33.250Z,22.53
2018-04-18T22:13:02.471Z,25.93
2018-04-18T22:15:31.196Z,23.50
2018-04-18T22:18:00.448Z,25.93
2018-04-18T22:20:28.517Z,23.80
2018-04-18T22:22:56.742Z,28.40
2018-04-18T22:25:26.247Z,26.80
2018-04-18T22:27:54.293Z,22.47
2018-04-18T22:30:23.450Z,22.63
2018-04-18T22:32:51.652Z,24.20
2018-04-18T22:35:20.781Z,27.07
2018-04-18T22:37:54.177Z,28.10
2018-04-18T22:40:22.281Z,45.63
2018-04-18T22:42:50.427Z,36.57
2018-04-18T22:45:19.185Z,24.63
2018-04-18T22:47:47.379Z,28.60
2018-04-18T22:50:15.536Z,25.07
2018-04-18T22:52:44.635Z,25.77
2018-04-18T22:55:13.857Z,33.27
2018-04-18T22:57:42.062Z,26.97
2018-04-18T23:00:10.209Z,26.93
2018-04-18T23:02:39.287Z,26.73
2018-04-18T23:05:07.957Z,31.93
2018-04-18T23:07:36.300Z,28.63
2018-04-18T23:10:04.563Z,25.17
2018-04-18T23:12:34.355Z,28.27
2018-04-18T23:15:02.628Z,28.53
2018-04-18T23:17:31.521Z,22.23
2018-04-18T23:20:02.873Z,24.50
2018-04-18T23:22:35.288Z,20.27
2018-04-18T23:25:04.852Z,21.00
2018-04-18T23:27:33.438Z,25.80
2018-04-18T23:30:01.924Z,23.27
2018-04-18T23:32:30.507Z,26.20
2018-04-18T23:34:58.882Z,23.53
2018-04-18T23:37:32.770Z,45.07
2018-04-18T23:40:01.577Z,32.43
2018-04-18T23:42:30.383Z,27.27
2018-04-18T23:44:59.279Z,22.23
2018-04-18T23:47:27.389Z,24.47
2018-04-18T23:49:55.502Z,26.40
2018-04-18T23:52:23.605Z,25.67
2018-04-18T23:54:53.737Z,26.67
2018-04-18T23:57:22.043Z,25.27
2018-04-18T23:59:50.662Z,29.23
